sensor_id;sensor_type;location;lat;lon;timestamp;pressure;altitude;pressure_sealevel;temperature;humidity
72055;BME280;59936;51.490;5.436;2022-10-31T00:00:26;101785.16;;;11.84;100.00
72055;BME280;59936;51.490;5.436;2022-10-31T00:05:29;101792.47;;;11.73;100.00
72055;BME280;59936;51.490;5.436;2022-10-31T00:10:32;101788.25;;;11.69;100.00
72055;BME280;59936;51.490;5.436;2022-10-31T00:15:34;101791.97;;;11.62;100.00
72055;BME280;59936;51.490;5.436;2022-10-31T00:20:37;101794.75;;;11.57;100.00
72055;BME280;59936;51.490;5.436;2022-10-31T00:25:39;101791.53;;;11.49;100.00
72055;BME280;59936;51.490;5.436;2022-10-31T00:30:43;101796.06;;;11.42;100.00
72055;BME280;59936;51.490;5.436;2022-10-31T00:35:50;101788.50;;;11.32;100.00
72055;BME280;59936;51.490;5.436;2022-10-31T00:40:53;101787.31;;;11.14;100.00
72055;BME280;59936;51.490;5.436;2022-10-31T00:45:55;101777.28;;;11.00;100.00
72055;BME280;59936;51.490;5.436;2022-10-31T00:50:58;101780.31;;;10.85;100.00
72055;BME280;59936;51.490;5.436;2022-10-31T00:56:00;101779.81;;;10.72;100.00
72055;BME280;59936;51.490;5.436;2022-10-31T01:01:04;101770.31;;;10.69;100.00
72055;BME280;59936;51.490;5.436;2022-10-31T01:06:09;101795.44;;;10.73;100.00
72055;BME280;59936;51.490;5.436;2022-10-31T01:11:14;101773.47;;;10.80;100.00
72055;BME280;59936;51.490;5.436;2022-10-31T01:16:19;101764.34;;;10.65;100.00
72055;BME280;59936;51.490;5.436;2022-10-31T01:21:28;101746.25;;;10.58;100.00
72055;BME280;59936;51.490;5.436;2022-10-31T01:26:32;101759.66;;;10.45;100.00
72055;BME280;59936;51.490;5.436;2022-10-31T01:31:36;101763.88;;;10.49;100.00
72055;BME280;59936;51.490;5.436;2022-10-31T01:36:42;101772.09;;;10.34;100.00
72055;BME280;59936;51.490;5.436;2022-10-31T01:41:50;101782.81;;;10.23;100.00
72055;BME280;59936;51.490;5.436;2022-10-31T01:46:57;101779.41;;;10.19;100.00
72055;BME280;59936;51.490;5.436;2022-10-31T01:52:05;101773.75;;;10.03;100.00
72055;BME280;59936;51.490;5.436;2022-10-31T01:57:12;101773.19;;;9.90;100.00
72055;BME280;59936;51.490;5.436;2022-10-31T02:02:17;101770.53;;;9.93;100.00
72055;BME280;59936;51.490;5.436;2022-10-31T02:07:25;101763.81;;;9.83;100.00
72055;BME280;59936;51.490;5.436;2022-10-31T02:12:34;101757.88;;;9.77;100.00
72055;BME280;59936;51.490;5.436;2022-10-31T02:17:37;101753.81;;;9.64;100.00
72055;BME280;59936;51.490;5.436;2022-10-31T02:22:43;101751.41;;;9.56;100.00
72055;BME280;59936;51.490;5.436;2022-10-31T02:28:18;101749.09;;;9.44;100.00
72055;BME280;59936;51.490;5.436;2022-10-31T02:33:40;101752.78;;;9.33;100.00
72055;BME280;59936;51.490;5.436;2022-10-31T02:38:51;101750.97;;;9.37;100.00
72055;BME280;59936;51.490;5.436;2022-10-31T02:44:08;101758.19;;;9.25;100.00
72055;BME280;59936;51.490;5.436;2022-10-31T02:49:23;101745.16;;;9.25;100.00
72055;BME280;59936;51.490;5.436;2022-10-31T02:54:30;101754.53;;;9.33;100.00
72055;BME280;59936;51.490;5.436;2022-10-31T02:59:35;101745.84;;;9.34;100.00
72055;BME280;59936;51.490;5.436;2022-10-31T03:04:57;101741.00;;;9.56;100.00
72055;BME280;59936;51.490;5.436;2022-10-31T03:10:16;101739.56;;;9.43;100.00
72055;BME280;59936;51.490;5.436;2022-10-31T03:15:31;101750.91;;;9.40;100.00
72055;BME280;59936;51.490;5.436;2022-10-31T03:20:40;101744.88;;;9.38;100.00
72055;BME280;59936;51.490;5.436;2022-10-31T03:25:46;101737.84;;;9.42;100.00
72055;BME280;59936;51.490;5.436;2022-10-31T03:30:51;101745.66;;;9.42;100.00
72055;BME280;59936;51.490;5.436;2022-10-31T03:35:57;101748.78;;;9.18;100.00
72055;BME280;59936;51.490;5.436;2022-10-31T03:41:05;101750.00;;;9.01;100.00
72055;BME280;59936;51.490;5.436;2022-10-31T03:46:12;101747.06;;;9.17;100.00
72055;BME280;59936;51.490;5.436;2022-10-31T03:51:18;101737.81;;;9.04;100.00
72055;BME280;59936;51.490;5.436;2022-10-31T03:56:29;101736.44;;;8.87;100.00
72055;BME280;59936;51.490;5.436;2022-10-31T04:01:39;101743.56;;;8.79;100.00
72055;BME280;59936;51.490;5.436;2022-10-31T04:06:49;101738.03;;;8.94;100.00
72055;BME280;59936;51.490;5.436;2022-10-31T04:11:55;101741.75;;;8.81;100.00
72055;BME280;59936;51.490;5.436;2022-10-31T04:17:02;101759.31;;;8.69;100.00
72055;BME280;59936;51.490;5.436;2022-10-31T04:22:08;101745.50;;;8.67;100.00
72055;BME280;59936;51.490;5.436;2022-10-31T04:27:10;101749.72;;;8.74;100.00
72055;BME280;59936;51.490;5.436;2022-10-31T04:32:12;101755.50;;;8.87;100.00
72055;BME280;59936;51.490;5.436;2022-10-31T04:37:16;101751.34;;;8.79;100.00
72055;BME280;59936;51.490;5.436;2022-10-31T04:42:17;101749.41;;;8.88;100.00
72055;BME280;59936;51.490;5.436;2022-10-31T04:47:19;101743.28;;;8.91;100.00
72055;BME280;59936;51.490;5.436;2022-10-31T04:52:22;101739.78;;;8.92;100.00
72055;BME280;59936;51.490;5.436;2022-10-31T04:57:24;101742.97;;;9.07;100.00
72055;BME280;59936;51.490;5.436;2022-10-31T05:02:26;101738.50;;;9.12;100.00
72055;BME280;59936;51.490;5.436;2022-10-31T05:07:29;101740.47;;;9.00;100.00
72055;BME280;59936;51.490;5.436;2022-10-31T05:12:32;101730.38;;;8.85;100.00
72055;BME280;59936;51.490;5.436;2022-10-31T05:17:33;101733.91;;;8.82;100.00
72055;BME280;59936;51.490;5.436;2022-10-31T05:22:36;101733.91;;;8.82;100.00
72055;BME280;59936;51.490;5.436;2022-10-31T05:27:39;101736.81;;;8.68;100.00
72055;BME280;59936;51.490;5.436;2022-10-31T05:32:42;101726.63;;;8.57;100.00
72055;BME280;59936;51.490;5.436;2022-10-31T05:37:47;101724.94;;;8.55;100.00
72055;BME280;59936;51.490;5.436;2022-10-31T05:42:51;101718.63;;;8.67;100.00
72055;BME280;59936;51.490;5.436;2022-10-31T05:47:56;101723.34;;;8.44;100.00
72055;BME280;59936;51.490;5.436;2022-10-31T05:53:02;101719.13;;;8.38;100.00
72055;BME280;59936;51.490;5.436;2022-10-31T05:58:04;101704.53;;;8.31;100.00
72055;BME280;59936;51.490;5.436;2022-10-31T06:03:08;101706.22;;;8.34;100.00
72055;BME280;59936;51.490;5.436;2022-10-31T06:08:12;101702.78;;;8.32;100.00
72055;BME280;59936;51.490;5.436;2022-10-31T06:13:13;101697.81;;;8.19;100.00
72055;BME280;59936;51.490;5.436;2022-10-31T06:18:15;101697.66;;;8.29;100.00
72055;BME280;59936;51.490;5.436;2022-10-31T06:23:18;101696.16;;;8.15;100.00
72055;BME280;59936;51.490;5.436;2022-10-31T06:28:20;101698.78;;;8.15;100.00
72055;BME280;59936;51.490;5.436;2022-10-31T06:33:23;101697.66;;;8.29;100.00
72055;BME280;59936;51.490;5.436;2022-10-31T06:38:27;101700.25;;;8.29;100.00
72055;BME280;59936;51.490;5.436;2022-10-31T06:43:29;101713.28;;;8.25;100.00
72055;BME280;59936;51.490;5.436;2022-10-31T06:48:31;101713.28;;;8.25;100.00
72055;BME280;59936;51.490;5.436;2022-10-31T06:53:34;101703.53;;;8.38;100.00
72055;BME280;59936;51.490;5.436;2022-10-31T06:58:36;101699.75;;;8.55;100.00
72055;BME280;59936;51.490;5.436;2022-10-31T07:03:38;101700.31;;;8.71;100.00
72055;BME280;59936;51.490;5.436;2022-10-31T07:08:41;101693.97;;;8.83;100.00
72055;BME280;59936;51.490;5.436;2022-10-31T07:13:43;101689.25;;;9.02;100.00
72055;BME280;59936;51.490;5.436;2022-10-31T07:18:44;101702.59;;;9.26;100.00
72055;BME280;59936;51.490;5.436;2022-10-31T07:23:48;101695.38;;;9.38;100.00
72055;BME280;59936;51.490;5.436;2022-10-31T07:28:50;101700.44;;;9.44;100.00
72055;BME280;59936;51.490;5.436;2022-10-31T07:33:52;101712.28;;;9.58;100.00
72055;BME280;59936;51.490;5.436;2022-10-31T07:38:55;101717.75;;;9.83;100.00
72055;BME280;59936;51.490;5.436;2022-10-31T07:43:58;101723.41;;;9.99;100.00
72055;BME280;59936;51.490;5.436;2022-10-31T07:49:01;101705.59;;;10.17;100.00
72055;BME280;59936;51.490;5.436;2022-10-31T07:54:04;101710.66;;;10.22;100.00
72055;BME280;59936;51.490;5.436;2022-10-31T07:59:07;101716.72;;;10.55;100.00
72055;BME280;59936;51.490;5.436;2022-10-31T08:04:09;101709.03;;;11.40;100.00
72055;BME280;59936;51.490;5.436;2022-10-31T08:09:12;101724.31;;;12.56;100.00
72055;BME280;59936;51.490;5.436;2022-10-31T08:14:13;101717.66;;;12.71;100.00
72055;BME280;59936;51.490;5.436;2022-10-31T08:19:16;101714.41;;;13.55;100.00
72055;BME280;59936;51.490;5.436;2022-10-31T08:24:19;101696.41;;;13.68;100.00
72055;BME280;59936;51.490;5.436;2022-10-31T08:29:23;101721.88;;;14.48;100.00
72055;BME280;59936;51.490;5.436;2022-10-31T08:34:25;101713.00;;;14.10;100.00
72055;BME280;59936;51.490;5.436;2022-10-31T08:39:29;101700.38;;;14.59;100.00
72055;BME280;59936;51.490;5.436;2022-10-31T08:44:31;101680.66;;;14.10;100.00
72055;BME280;59936;51.490;5.436;2022-10-31T08:49:33;101662.72;;;13.36;100.00
72055;BME280;59936;51.490;5.436;2022-10-31T08:54:35;101667.28;;;12.86;100.00
72055;BME280;59936;51.490;5.436;2022-10-31T08:59:37;101684.28;;;12.52;100.00
72055;BME280;59936;51.490;5.436;2022-10-31T09:04:39;101669.84;;;12.66;100.00
72055;BME280;59936;51.490;5.436;2022-10-31T09:09:42;101672.66;;;12.83;100.00
72055;BME280;59936;51.490;5.436;2022-10-31T09:14:43;101688.75;;;13.63;100.00
72055;BME280;59936;51.490;5.436;2022-10-31T09:19:45;101672.97;;;14.05;100.00
72055;BME280;59936;51.490;5.436;2022-10-31T09:24:48;101661.72;;;13.82;100.00
72055;BME280;59936;51.490;5.436;2022-10-31T09:29:50;101653.50;;;14.30;100.00
72055;BME280;59936;51.490;5.436;2022-10-31T09:34:51;101621.50;;;14.02;100.00
72055;BME280;59936;51.490;5.436;2022-10-31T09:39:55;101610.81;;;13.86;100.00
72055;BME280;59936;51.490;5.436;2022-10-31T09:45:03;101613.06;;;13.75;100.00
72055;BME280;59936;51.490;5.436;2022-10-31T09:50:15;101630.25;;;13.61;100.00
72055;BME280;59936;51.490;5.436;2022-10-31T09:55:27;101618.59;;;13.69;100.00
72055;BME280;59936;51.490;5.436;2022-10-31T10:00:36;101618.59;;;13.69;100.00
72055;BME280;59936;51.490;5.436;2022-10-31T10:05:39;101610.38;;;13.76;100.00
72055;BME280;59936;51.490;5.436;2022-10-31T10:10:50;101586.38;;;14.24;100.00
72055;BME280;59936;51.490;5.436;2022-10-31T10:16:06;101579.75;;;15.79;100.00
72055;BME280;59936;51.490;5.436;2022-10-31T10:21:25;101570.75;;;15.32;100.00
72055;BME280;59936;51.490;5.436;2022-10-31T10:26:42;101555.84;;;15.32;100.00
72055;BME280;59936;51.490;5.436;2022-10-31T10:31:51;101551.22;;;15.20;100.00
72055;BME280;59936;51.490;5.436;2022-10-31T10:37:00;101562.97;;;15.13;100.00
72055;BME280;59936;51.490;5.436;2022-10-31T10:42:12;101551.59;;;14.95;100.00
72055;BME280;59936;51.490;5.436;2022-10-31T10:47:38;101564.19;;;15.41;100.00
72055;BME280;59936;51.490;5.436;2022-10-31T10:52:50;101563.50;;;15.19;100.00
72055;BME280;59936;51.490;5.436;2022-10-31T10:58:02;101541.19;;;15.44;100.00
72055;BME280;59936;51.490;5.436;2022-10-31T11:03:07;101541.34;;;15.59;100.00
72055;BME280;59936;51.490;5.436;2022-10-31T11:08:09;101544.31;;;15.69;100.00
72055;BME280;59936;51.490;5.436;2022-10-31T11:13:21;101545.22;;;15.52;100.00
72055;BME280;59936;51.490;5.436;2022-10-31T11:18:26;101538.56;;;15.44;100.00
72055;BME280;59936;51.490;5.436;2022-10-31T11:23:29;101507.41;;;15.70;100.00
72055;BME280;59936;51.490;5.436;2022-10-31T11:28:34;101491.47;;;15.90;100.00
72055;BME280;59936;51.490;5.436;2022-10-31T11:33:37;101481.09;;;15.70;100.00
72055;BME280;59936;51.490;5.436;2022-10-31T11:38:47;101475.72;;;16.06;100.00
72055;BME280;59936;51.490;5.436;2022-10-31T11:43:53;101451.16;;;16.52;100.00
72055;BME280;59936;51.490;5.436;2022-10-31T11:48:58;101445.44;;;16.29;100.00
72055;BME280;59936;51.490;5.436;2022-10-31T11:54:01;101437.47;;;17.50;100.00
72055;BME280;59936;51.490;5.436;2022-10-31T11:59:18;101428.16;;;16.56;100.00
72055;BME280;59936;51.490;5.436;2022-10-31T12:04:32;101407.63;;;17.77;100.00
72055;BME280;59936;51.490;5.436;2022-10-31T12:09:42;101403.00;;;17.10;100.00
72055;BME280;59936;51.490;5.436;2022-10-31T12:14:54;101390.53;;;16.83;100.00
72055;BME280;59936;51.490;5.436;2022-10-31T12:20:18;101369.19;;;17.02;100.00
72055;BME280;59936;51.490;5.436;2022-10-31T12:25:33;101359.28;;;16.77;100.00
72055;BME280;59936;51.490;5.436;2022-10-31T12:30:56;101343.63;;;17.46;100.00
72055;BME280;59936;51.490;5.436;2022-10-31T12:36:24;101348.13;;;18.14;100.00
72055;BME280;59936;51.490;5.436;2022-10-31T12:41:44;101330.81;;;17.40;100.00
72055;BME280;59936;51.490;5.436;2022-10-31T12:47:05;101298.47;;;17.79;100.00
72055;BME280;59936;51.490;5.436;2022-10-31T12:52:32;101287.59;;;18.11;98.08
72055;BME280;59936;51.490;5.436;2022-10-31T12:57:46;101273.41;;;18.12;98.73
72055;BME280;59936;51.490;5.436;2022-10-31T13:02:56;101265.81;;;18.20;98.50
72055;BME280;59936;51.490;5.436;2022-10-31T13:08:06;101256.16;;;17.53;100.00
72055;BME280;59936;51.490;5.436;2022-10-31T13:13:15;101238.50;;;17.81;100.00
72055;BME280;59936;51.490;5.436;2022-10-31T13:18:26;101228.97;;;17.65;96.86
72055;BME280;59936;51.490;5.436;2022-10-31T13:23:33;101215.88;;;17.76;100.00
72055;BME280;59936;51.490;5.436;2022-10-31T13:28:40;101203.34;;;17.40;100.00
72055;BME280;59936;51.490;5.436;2022-10-31T13:33:51;101192.88;;;17.66;100.00
72055;BME280;59936;51.490;5.436;2022-10-31T13:38:59;101184.84;;;17.93;97.07
72055;BME280;59936;51.490;5.436;2022-10-31T13:44:14;101180.41;;;17.68;95.03
72055;BME280;59936;51.490;5.436;2022-10-31T13:49:37;101166.09;;;17.04;96.55
72055;BME280;59936;51.490;5.436;2022-10-31T13:54:41;101164.22;;;17.06;99.09
72055;BME280;59936;51.490;5.436;2022-10-31T13:59:48;101154.00;;;16.44;100.00
72055;BME280;59936;51.490;5.436;2022-10-31T14:04:56;101148.25;;;16.08;100.00
72055;BME280;59936;51.490;5.436;2022-10-31T14:10:03;101149.75;;;16.13;100.00
72055;BME280;59936;51.490;5.436;2022-10-31T14:15:15;101133.13;;;16.12;100.00
72055;BME280;59936;51.490;5.436;2022-10-31T14:20:32;101127.28;;;15.92;100.00
72055;BME280;59936;51.490;5.436;2022-10-31T14:25:37;101126.28;;;15.95;100.00
72055;BME280;59936;51.490;5.436;2022-10-31T14:30:39;101120.06;;;16.11;100.00
72055;BME280;59936;51.490;5.436;2022-10-31T14:35:57;101113.53;;;15.87;100.00
72055;BME280;59936;51.490;5.436;2022-10-31T14:41:18;101109.00;;;15.75;100.00
72055;BME280;59936;51.490;5.436;2022-10-31T14:46:40;101105.06;;;15.82;100.00
72055;BME280;59936;51.490;5.436;2022-10-31T14:51:52;101087.06;;;16.05;100.00
72055;BME280;59936;51.490;5.436;2022-10-31T14:56:59;101087.03;;;16.19;100.00
72055;BME280;59936;51.490;5.436;2022-10-31T15:02:11;101062.78;;;16.14;100.00
72055;BME280;59936;51.490;5.436;2022-10-31T15:07:21;101043.31;;;16.17;100.00
72055;BME280;59936;51.490;5.436;2022-10-31T15:12:27;101031.00;;;15.88;100.00
72055;BME280;59936;51.490;5.436;2022-10-31T15:17:32;101011.84;;;15.71;100.00
72055;BME280;59936;51.490;5.436;2022-10-31T15:22:35;101015.06;;;15.62;100.00
72055;BME280;59936;51.490;5.436;2022-10-31T15:27:40;101009.97;;;15.59;100.00
72055;BME280;59936;51.490;5.436;2022-10-31T15:32:44;101000.38;;;15.43;100.00
72055;BME280;59936;51.490;5.436;2022-10-31T15:37:48;100992.00;;;15.22;100.00
72055;BME280;59936;51.490;5.436;2022-10-31T15:42:52;100997.13;;;14.95;100.00
72055;BME280;59936;51.490;5.436;2022-10-31T15:47:59;100986.88;;;14.74;100.00
72055;BME280;59936;51.490;5.436;2022-10-31T15:53:06;100986.09;;;14.57;100.00
72055;BME280;59936;51.490;5.436;2022-10-31T15:58:17;100982.22;;;14.32;100.00
72055;BME280;59936;51.490;5.436;2022-10-31T16:03:25;100983.78;;;14.04;100.00
72055;BME280;59936;51.490;5.436;2022-10-31T16:08:34;100980.97;;;13.91;100.00
72055;BME280;59936;51.490;5.436;2022-10-31T16:13:39;100978.56;;;13.70;100.00
72055;BME280;59936;51.490;5.436;2022-10-31T16:18:54;100968.34;;;13.48;100.00
72055;BME280;59936;51.490;5.436;2022-10-31T16:24:01;100962.84;;;13.36;100.00
72055;BME280;59936;51.490;5.436;2022-10-31T16:29:27;100950.91;;;13.31;100.00
72055;BME280;59936;51.490;5.436;2022-10-31T16:34:33;100953.59;;;13.29;100.00
72055;BME280;59936;51.490;5.436;2022-10-31T16:39:36;100951.59;;;13.84;100.00
72055;BME280;59936;51.490;5.436;2022-10-31T16:44:38;100954.66;;;13.93;100.00
72055;BME280;59936;51.490;5.436;2022-10-31T16:49:40;100957.25;;;14.25;100.00
72055;BME280;59936;51.490;5.436;2022-10-31T16:54:43;100957.34;;;14.23;100.00
72055;BME280;59936;51.490;5.436;2022-10-31T16:59:46;100931.34;;;14.65;100.00
72055;BME280;59936;51.490;5.436;2022-10-31T17:05:00;100937.69;;;14.47;100.00
72055;BME280;59936;51.490;5.436;2022-10-31T17:10:03;100928.84;;;14.48;100.00
72055;BME280;59936;51.490;5.436;2022-10-31T17:15:06;100931.72;;;14.59;100.00
72055;BME280;59936;51.490;5.436;2022-10-31T17:20:19;100921.41;;;14.71;100.00
72055;BME280;59936;51.490;5.436;2022-10-31T17:25:27;100916.16;;;14.40;100.00
72055;BME280;59936;51.490;5.436;2022-10-31T17:30:33;100901.25;;;14.40;100.00
72055;BME280;59936;51.490;5.436;2022-10-31T17:35:36;100887.09;;;14.12;100.00
72055;BME280;59936;51.490;5.436;2022-10-31T17:40:40;100876.59;;;14.12;100.00
72055;BME280;59936;51.490;5.436;2022-10-31T17:45:42;100871.19;;;14.15;100.00
72055;BME280;59936;51.490;5.436;2022-10-31T17:50:43;100887.44;;;14.06;100.00
72055;BME280;59936;51.490;5.436;2022-10-31T17:55:48;100901.84;;;13.83;100.00
72055;BME280;59936;51.490;5.436;2022-10-31T18:00:49;100904.13;;;13.73;100.00
72055;BME280;59936;51.490;5.436;2022-10-31T18:05:53;100905.28;;;13.51;100.00
72055;BME280;59936;51.490;5.436;2022-10-31T18:10:58;100889.00;;;13.28;100.00
72055;BME280;59936;51.490;5.436;2022-10-31T18:16:06;100881.84;;;13.48;100.00
72055;BME280;59936;51.490;5.436;2022-10-31T18:21:08;100875.69;;;13.49;100.00
72055;BME280;59936;51.490;5.436;2022-10-31T18:26:11;100859.13;;;13.14;100.00
72055;BME280;59936;51.490;5.436;2022-10-31T18:31:13;100866.84;;;13.00;100.00
72055;BME280;59936;51.490;5.436;2022-10-31T18:36:15;100865.03;;;13.02;100.00
72055;BME280;59936;51.490;5.436;2022-10-31T18:41:18;100873.38;;;12.75;100.00
72055;BME280;59936;51.490;5.436;2022-10-31T18:46:20;100866.41;;;12.92;100.00
72055;BME280;59936;51.490;5.436;2022-10-31T18:51:22;100859.78;;;13.02;100.00
72055;BME280;59936;51.490;5.436;2022-10-31T18:56:26;100856.19;;;12.87;100.00
72055;BME280;59936;51.490;5.436;2022-10-31T19:01:31;100852.56;;;12.72;100.00
72055;BME280;59936;51.490;5.436;2022-10-31T19:06:33;100853.06;;;12.62;100.00
72055;BME280;59936;51.490;5.436;2022-10-31T19:11:37;100851.22;;;12.47;100.00
72055;BME280;59936;51.490;5.436;2022-10-31T19:16:41;100844.28;;;12.28;100.00
72055;BME280;59936;51.490;5.436;2022-10-31T19:21:43;100841.19;;;12.20;100.00
72055;BME280;59936;51.490;5.436;2022-10-31T19:26:47;100839.50;;;12.19;100.00
72055;BME280;59936;51.490;5.436;2022-10-31T19:31:49;100833.22;;;12.23;100.00
72055;BME280;59936;51.490;5.436;2022-10-31T19:36:51;100825.66;;;12.52;100.00
72055;BME280;59936;51.490;5.436;2022-10-31T19:41:55;100825.78;;;12.67;100.00
72055;BME280;59936;51.490;5.436;2022-10-31T19:46:57;100821.97;;;13.88;100.00
72055;BME280;59936;51.490;5.436;2022-10-31T19:51:59;100821.66;;;13.78;100.00
72055;BME280;59936;51.490;5.436;2022-10-31T19:57:03;100817.41;;;13.27;100.00
72055;BME280;59936;51.490;5.436;2022-10-31T20:02:05;100819.44;;;12.88;100.00
72055;BME280;59936;51.490;5.436;2022-10-31T20:07:07;100813.84;;;13.29;100.00
72055;BME280;59936;51.490;5.436;2022-10-31T20:12:10;100801.25;;;13.19;100.00
72055;BME280;59936;51.490;5.436;2022-10-31T20:17:11;100797.75;;;13.03;100.00
72055;BME280;59936;51.490;5.436;2022-10-31T20:22:13;100788.81;;;13.23;100.00
72055;BME280;59936;51.490;5.436;2022-10-31T20:27:16;100784.06;;;12.97;100.00
72055;BME280;59936;51.490;5.436;2022-10-31T20:32:18;100770.50;;;12.73;100.00
72055;BME280;59936;51.490;5.436;2022-10-31T20:37:20;100773.19;;;12.71;100.00
72055;BME280;59936;51.490;5.436;2022-10-31T20:42:23;100765.63;;;12.49;100.00
72055;BME280;59936;51.490;5.436;2022-10-31T20:47:26;100762.38;;;12.61;100.00
72055;BME280;59936;51.490;5.436;2022-10-31T20:52:30;100751.81;;;12.29;100.00
72055;BME280;59936;51.490;5.436;2022-10-31T20:57:33;100745.28;;;12.54;100.00
72055;BME280;59936;51.490;5.436;2022-10-31T21:02:35;100745.16;;;12.40;100.00
72055;BME280;59936;51.490;5.436;2022-10-31T21:07:40;100745.75;;;12.45;100.00
72055;BME280;59936;51.490;5.436;2022-10-31T21:12:44;100730.63;;;12.68;100.00
72055;BME280;59936;51.490;5.436;2022-10-31T21:17:47;100724.81;;;12.79;100.00
72055;BME280;59936;51.490;5.436;2022-10-31T21:22:49;100719.66;;;12.77;100.00
72055;BME280;59936;51.490;5.436;2022-10-31T21:27:52;100708.94;;;12.98;100.00
72055;BME280;59936;51.490;5.436;2022-10-31T21:32:53;100708.31;;;13.57;100.00
72055;BME280;59936;51.490;5.436;2022-10-31T21:37:56;100693.38;;;13.27;100.00
72055;BME280;59936;51.490;5.436;2022-10-31T21:42:59;100698.44;;;13.30;100.00
72055;BME280;59936;51.490;5.436;2022-10-31T21:48:03;100705.94;;;13.69;100.00
72055;BME280;59936;51.490;5.436;2022-10-31T21:53:05;100698.00;;;13.54;100.00
72055;BME280;59936;51.490;5.436;2022-10-31T21:58:23;100704.44;;;13.64;100.00
72055;BME280;59936;51.490;5.436;2022-10-31T22:03:25;100717.03;;;13.88;100.00
72055;BME280;59936;51.490;5.436;2022-10-31T22:08:27;100725.97;;;14.00;100.00
72055;BME280;59936;51.490;5.436;2022-10-31T22:13:30;100715.97;;;14.07;100.00
72055;BME280;59936;51.490;5.436;2022-10-31T22:18:34;100721.31;;;14.06;100.00
72055;BME280;59936;51.490;5.436;2022-10-31T22:23:36;100702.31;;;14.31;100.00
72055;BME280;59936;51.490;5.436;2022-10-31T22:28:42;100696.09;;;14.18;100.00
72055;BME280;59936;51.490;5.436;2022-10-31T22:33:45;100689.16;;;14.16;100.00
72055;BME280;59936;51.490;5.436;2022-10-31T22:38:48;100672.78;;;14.13;100.00
72055;BME280;59936;51.490;5.436;2022-10-31T22:43:52;100667.22;;;14.18;100.00
72055;BME280;59936;51.490;5.436;2022-10-31T22:48:55;100655.31;;;14.12;100.00
72055;BME280;59936;51.490;5.436;2022-10-31T22:53:59;100639.50;;;13.99;100.00
72055;BME280;59936;51.490;5.436;2022-10-31T22:59:02;100640.72;;;13.93;100.00
72055;BME280;59936;51.490;5.436;2022-10-31T23:04:04;100643.97;;;13.97;100.00
72055;BME280;59936;51.490;5.436;2022-10-31T23:09:06;100643.63;;;14.03;100.00
72055;BME280;59936;51.490;5.436;2022-10-31T23:14:12;100648.03;;;14.17;100.00
72055;BME280;59936;51.490;5.436;2022-10-31T23:19:20;100642.28;;;14.10;100.00
72055;BME280;59936;51.490;5.436;2022-10-31T23:24:25;100629.75;;;14.15;100.00
72055;BME280;59936;51.490;5.436;2022-10-31T23:29:39;100625.59;;;14.26;100.00
72055;BME280;59936;51.490;5.436;2022-10-31T23:34:43;100610.63;;;14.42;100.00
72055;BME280;59936;51.490;5.436;2022-10-31T23:39:46;100601.72;;;14.87;100.00
72055;BME280;59936;51.490;5.436;2022-10-31T23:44:50;100615.00;;;14.99;100.00
72055;BME280;59936;51.490;5.436;2022-10-31T23:49:52;100614.50;;;15.06;100.00
72055;BME280;59936;51.490;5.436;2022-10-31T23:54:53;100601.19;;;15.23;100.00
72055;BME280;59936;51.490;5.436;2022-10-31T23:59:57;100584.81;;;15.32;100.00
